createdAt,value
2018-12-24T00:00:16.046Z,88.28
2018-12-24T00:01:16.033Z,88.28
2018-12-24T00:02:16.007Z,88.48
2018-12-24T00:03:16.026Z,88.32
2018-12-24T00:04:15.990Z,88.53
2018-12-24T00:05:15.973Z,88.08
2018-12-24T00:06:15.968Z,87.98
2018-12-24T00:07:15.957Z,87.87
2018-12-24T00:08:15.972Z,87.98
2018-12-24T00:09:15.936Z,87.67
2018-12-24T00:10:15.917Z,87.47
2018-12-24T00:11:15.912Z,87.26
2018-12-24T00:12:15.898Z,87.37
2018-12-24T00:13:15.916Z,87.37
2018-12-24T00:14:15.877Z,87.57
2018-12-24T00:15:15.863Z,87.67
2018-12-24T00:16:15.870Z,87.47
2018-12-24T00:17:15.840Z,87.16
2018-12-24T00:18:15.845Z,87.16
2018-12-24T00:19:15.824Z,87.16
2018-12-24T00:20:15.811Z,87.06
2018-12-24T00:21:15.795Z,86.76
2018-12-24T00:22:15.785Z,86.76
2018-12-24T00:23:15.794Z,86.21
2018-12-24T00:24:15.772Z,86.10
2018-12-24T00:25:15.765Z,85.80
2018-12-24T00:26:15.748Z,86.76
2018-12-24T00:27:15.735Z,85.90
2018-12-24T00:28:15.716Z,85.70
2018-12-24T00:29:15.719Z,85.90
2018-12-24T00:30:15.703Z,85.39
2018-12-24T00:31:15.679Z,85.19
2018-12-24T00:32:15.668Z,85.90
2018-12-24T00:33:15.658Z,85.09
2018-12-24T00:34:15.656Z,85.60
2018-12-24T00:35:15.632Z,84.99
2018-12-24T00:36:15.624Z,85.19
2018-12-24T00:37:15.611Z,85.09
2018-12-24T00:38:15.599Z,84.58
2018-12-24T00:39:15.680Z,84.34
2018-12-24T00:40:15.576Z,84.64
2018-12-24T00:41:15.563Z,85.49
2018-12-24T00:42:16.002Z,85.29
2018-12-24T00:43:15.558Z,85.60
2018-12-24T00:44:15.539Z,84.88
2018-12-24T00:45:15.526Z,85.60
2018-12-24T00:46:15.508Z,80.55
2018-12-24T00:47:15.496Z,81.54
2018-12-24T00:48:15.492Z,83.49
2018-12-24T00:49:15.484Z,85.24
2018-12-24T00:50:15.461Z,87.73
2018-12-24T00:51:15.450Z,89.76
2018-12-24T00:52:15.438Z,91.99
2018-12-24T00:53:15.426Z,93.26
2018-12-24T00:54:15.433Z,94.08
2018-12-24T00:55:15.406Z,95.25
2018-12-24T00:56:15.398Z,94.95
2018-12-24T00:57:15.382Z,95.36
2018-12-24T00:58:15.371Z,96.53
2018-12-24T00:59:15.377Z,96.42
2018-12-24T01:00:15.350Z,96.83
2018-12-24T01:01:15.427Z,96.94
2018-12-24T01:02:15.324Z,97.04
2018-12-24T01:03:15.315Z,97.04
2018-12-24T01:04:15.308Z,97.34
2018-12-24T01:05:15.308Z,95.40
2018-12-24T01:06:15.281Z,94.99
2018-12-24T01:07:15.272Z,94.78
2018-12-24T01:08:15.257Z,94.78
2018-12-24T01:09:15.254Z,93.76
2018-12-24T01:10:15.246Z,93.71
2018-12-24T01:11:15.258Z,94.17
2018-12-24T01:12:15.215Z,95.29
2018-12-24T01:13:15.201Z,93.92
2018-12-24T01:14:15.194Z,93.71
2018-12-24T01:15:15.189Z,93.30
2018-12-24T01:16:15.170Z,93.92
2018-12-24T01:17:15.160Z,93.92
2018-12-24T01:18:15.145Z,93.35
2018-12-24T01:19:15.132Z,94.02
2018-12-24T01:20:15.133Z,93.41
2018-12-24T01:21:15.110Z,92.43
2018-12-24T01:22:15.098Z,93.25
2018-12-24T01:23:15.091Z,92.08
2018-12-24T01:24:15.077Z,93.00
2018-12-24T01:25:15.077Z,92.79
2018-12-24T01:26:15.057Z,93.10
2018-12-24T01:27:15.044Z,92.69
2018-12-24T01:28:15.032Z,92.90
2018-12-24T01:29:15.032Z,93.45
2018-12-24T01:30:15.024Z,93.15
2018-12-24T01:31:14.999Z,91.97
2018-12-24T01:32:14.990Z,91.77
2018-12-24T01:33:14.974Z,93.25
2018-12-24T01:34:14.967Z,93.00
2018-12-24T01:35:14.970Z,92.79
2018-12-24T01:36:14.943Z,91.40
2018-12-24T01:37:14.936Z,91.71
2018-12-24T01:38:14.929Z,92.02
2018-12-24T01:39:14.922Z,91.50
2018-12-24T01:40:14.908Z,91.09
2018-12-24T01:41:14.900Z,90.99
2018-12-24T01:42:14.873Z,90.58
2018-12-24T01:43:14.864Z,89.76
2018-12-24T01:44:14.850Z,89.97
2018-12-24T01:45:14.839Z,90.58
2018-12-24T01:46:14.837Z,90.32
2018-12-24T01:47:14.820Z,90.62
2018-12-24T01:48:14.816Z,89.60
2018-12-24T01:49:14.825Z,89.70
2018-12-24T01:50:14.782Z,89.70
2018-12-24T01:51:14.787Z,90.16
2018-12-24T01:52:14.762Z,91.03
2018-12-24T01:53:14.751Z,90.36
2018-12-24T01:54:14.740Z,90.16
2018-12-24T01:55:14.725Z,89.13
2018-12-24T01:56:14.724Z,88.72
2018-12-24T01:57:14.705Z,88.62
2018-12-24T01:58:14.692Z,89.43
2018-12-24T01:59:16.803Z,89.23
2018-12-24T02:00:14.672Z,89.03
2018-12-24T02:01:14.676Z,89.75
2018-12-24T02:02:14.656Z,90.16
2018-12-24T02:03:14.638Z,89.13
2018-12-24T02:04:14.630Z,89.13
2018-12-24T02:05:14.615Z,89.23
2018-12-24T02:07:59.580Z,89.48
2018-12-24T02:08:23.301Z,89.78
2018-12-24T02:09:23.288Z,89.69
2018-12-24T02:10:23.279Z,89.99
2018-12-24T02:11:23.295Z,89.69
2018-12-24T02:12:23.253Z,89.69
2018-12-24T02:13:23.242Z,90.30
2018-12-24T02:14:23.234Z,90.44
2018-12-24T02:15:23.227Z,89.83
2018-12-24T02:16:23.214Z,89.93
2018-12-24T02:17:23.214Z,90.34
2018-12-24T02:18:23.206Z,90.24
2018-12-24T02:19:23.185Z,90.24
2018-12-24T02:20:23.170Z,89.83
2018-12-24T02:21:23.158Z,89.83
2018-12-24T02:22:23.155Z,90.65
2018-12-24T02:23:23.147Z,89.93
2018-12-24T02:24:23.130Z,89.83
2018-12-24T02:25:23.110Z,90.44
2018-12-24T02:26:23.107Z,90.44
2018-12-24T02:27:23.160Z,90.75
2018-12-24T02:28:23.086Z,90.95
2018-12-24T02:29:23.072Z,91.41
2018-12-24T02:30:23.062Z,90.24
2018-12-24T02:31:23.052Z,91.41
2018-12-24T02:32:23.051Z,91.31
2018-12-24T02:33:23.027Z,91.20
2018-12-24T02:34:23.012Z,91.93
2018-12-24T02:35:23.015Z,92.33
2018-12-24T02:36:22.994Z,92.03
2018-12-24T02:37:22.990Z,91.93
2018-12-24T02:38:22.975Z,91.82
2018-12-24T02:39:22.964Z,92.13
2018-12-24T02:40:22.945Z,92.13
2018-12-24T02:41:22.936Z,92.33
2018-12-24T02:42:22.933Z,92.23
2018-12-24T02:43:22.922Z,92.17
2018-12-24T02:44:22.902Z,92.03
2018-12-24T02:45:22.896Z,92.23
2018-12-24T02:46:22.890Z,92.13
2018-12-24T02:47:22.878Z,92.13
2018-12-24T02:48:22.876Z,91.93
2018-12-24T02:49:22.861Z,92.17
2018-12-24T02:50:22.840Z,92.33
2018-12-24T02:51:22.832Z,92.03
2018-12-24T02:52:22.834Z,92.23
2018-12-24T02:53:22.804Z,92.27
2018-12-24T02:54:22.813Z,92.07
2018-12-24T02:55:22.787Z,91.45
2018-12-24T02:56:22.772Z,90.63
2018-12-24T02:57:22.769Z,89.91
2018-12-24T02:58:22.752Z,88.78
2018-12-24T02:59:22.738Z,88.47
2018-12-24T03:00:22.738Z,88.47
2018-12-24T03:01:22.718Z,87.55
2018-12-24T03:02:22.725Z,87.75
2018-12-24T03:03:22.707Z,86.66
2018-12-24T03:04:22.682Z,87.07
2018-12-24T03:05:22.686Z,86.77
2018-12-24T03:06:22.675Z,86.87
2018-12-24T03:07:22.659Z,86.97
2018-12-24T03:08:22.652Z,86.77
2018-12-24T03:09:22.628Z,87.28
2018-12-24T03:10:22.617Z,86.05
2018-12-24T03:11:22.606Z,86.66
2018-12-24T03:12:22.593Z,86.77
2018-12-24T03:13:22.592Z,87.12
2018-12-24T03:14:22.583Z,87.73
2018-12-24T03:15:22.559Z,86.80
2018-12-24T03:16:22.549Z,88.14
2018-12-24T03:17:22.537Z,87.12
2018-12-24T03:18:22.538Z,87.84
2018-12-24T03:19:22.517Z,87.52
2018-12-24T03:20:22.506Z,87.94
2018-12-24T03:21:22.492Z,87.52
2018-12-24T03:22:22.485Z,87.63
2018-12-24T03:23:22.487Z,87.73
2018-12-24T03:24:22.468Z,87.73
2018-12-24T03:25:22.455Z,87.87
2018-12-24T03:26:22.444Z,87.98
2018-12-24T03:27:22.437Z,87.77
2018-12-24T03:28:22.437Z,87.67
2018-12-24T03:29:22.415Z,88.08
2018-12-24T03:30:22.399Z,87.98
2018-12-24T03:31:22.427Z,87.67
2018-12-24T03:32:22.382Z,88.29
2018-12-24T03:33:22.393Z,88.08
2018-12-24T03:34:22.352Z,88.39
2018-12-24T03:35:22.340Z,88.59
2018-12-24T03:36:22.342Z,88.18
2018-12-24T03:37:22.329Z,88.29
2018-12-24T03:38:22.308Z,87.98
2018-12-24T03:39:22.307Z,88.02
2018-12-24T03:40:22.285Z,87.92
2018-12-24T03:41:22.277Z,88.12
2018-12-24T03:42:22.262Z,88.49
2018-12-24T03:43:22.260Z,88.64
2018-12-24T03:44:22.272Z,88.53
2018-12-24T03:45:22.231Z,88.53
2018-12-24T03:46:22.221Z,88.43
2018-12-24T03:47:22.208Z,88.70
2018-12-24T03:48:22.196Z,88.64
2018-12-24T03:49:22.196Z,88.53
2018-12-24T03:50:22.176Z,89.46
2018-12-24T03:51:22.163Z,89.05
2018-12-24T03:52:22.152Z,88.64
2018-12-24T03:53:22.153Z,88.84
2018-12-24T03:54:22.146Z,88.84
2018-12-24T03:55:22.125Z,89.25
2018-12-24T03:56:22.106Z,89.15
2018-12-24T03:57:22.099Z,88.99
2018-12-24T03:58:22.085Z,89.19
2018-12-24T03:59:22.105Z,90.33
2018-12-24T04:00:22.067Z,88.68
2018-12-24T04:01:22.056Z,89.61
2018-12-24T04:02:22.048Z,89.19
2018-12-24T04:03:22.032Z,89.61
2018-12-24T04:04:22.031Z,88.78
2018-12-24T04:05:22.163Z,88.57
2018-12-24T04:06:21.999Z,88.89
2018-12-24T04:07:21.991Z,89.40
2018-12-24T04:08:21.991Z,89.40
2018-12-24T04:09:21.963Z,89.19
2018-12-24T04:10:21.965Z,90.12
2018-12-24T04:11:24.159Z,89.75
2018-12-24T04:12:21.933Z,88.89
2018-12-24T04:13:22.668Z,88.92
2018-12-24T04:14:21.907Z,89.03
2018-12-24T04:15:21.909Z,90.26
2018-12-24T04:16:21.885Z,88.62
2018-12-24T04:17:21.879Z,88.92
2018-12-24T04:18:21.869Z,89.65
2018-12-24T04:19:21.858Z,88.72
2018-12-24T04:20:21.852Z,88.31
2018-12-24T04:21:22.860Z,88.51
2018-12-24T04:22:21.833Z,86.87
2018-12-24T04:23:21.807Z,87.48
2018-12-24T04:24:21.797Z,87.48
2018-12-24T04:25:21.805Z,87.27
2018-12-24T04:26:21.775Z,87.27
2018-12-24T04:27:21.763Z,87.07
2018-12-24T04:28:21.763Z,86.66
2018-12-24T04:29:21.743Z,86.35
2018-12-24T04:30:21.743Z,86.76
2018-12-24T04:31:21.719Z,87.27
2018-12-24T04:32:21.710Z,86.87
2018-12-24T04:33:21.700Z,87.99
2018-12-24T04:34:21.691Z,87.38
2018-12-24T04:35:21.688Z,86.60
2018-12-24T04:36:21.663Z,87.38
2018-12-24T04:37:21.654Z,87.38
2018-12-24T04:38:21.643Z,87.07
2018-12-24T04:39:21.637Z,88.14
2018-12-24T04:40:21.645Z,87.38
2018-12-24T04:41:21.616Z,87.17
2018-12-24T04:42:21.597Z,86.97
2018-12-24T04:43:21.589Z,88.10
2018-12-24T04:44:21.576Z,88.10
2018-12-24T04:45:21.585Z,88.20
2018-12-24T04:46:21.581Z,87.90
2018-12-24T04:47:21.560Z,88.14
2018-12-24T04:48:21.530Z,88.10
2018-12-24T04:49:21.529Z,87.69
2018-12-24T04:50:21.513Z,88.20
2018-12-24T04:51:21.527Z,86.66
2018-12-24T04:52:21.495Z,88.10
2018-12-24T04:53:21.475Z,88.10
2018-12-24T04:54:21.467Z,87.48
2018-12-24T04:55:21.455Z,86.87
2018-12-24T04:56:21.462Z,86.97
2018-12-24T04:57:21.450Z,86.76
2018-12-24T04:58:21.421Z,87.17
2018-12-24T04:59:21.410Z,87.99
2018-12-24T05:00:21.400Z,87.52
2018-12-24T05:01:21.399Z,87.17
2018-12-24T05:02:21.382Z,87.32
2018-12-24T05:03:21.367Z,87.21
2018-12-24T05:04:21.358Z,87.01
2018-12-24T05:05:21.343Z,86.90
2018-12-24T05:06:21.343Z,87.01
2018-12-24T05:07:21.324Z,85.77
2018-12-24T05:08:21.320Z,86.08
2018-12-24T05:09:21.300Z,86.39
2018-12-24T05:10:21.289Z,86.70
2018-12-24T05:11:21.289Z,86.80
2018-12-24T05:12:21.266Z,86.80
2018-12-24T05:13:21.259Z,86.80
2018-12-24T05:14:21.252Z,86.15
2018-12-24T05:15:21.343Z,86.70
2018-12-24T05:16:21.240Z,86.90
2018-12-24T05:17:21.215Z,86.49
2018-12-24T05:18:21.201Z,86.60
2018-12-24T05:19:21.189Z,86.45
2018-12-24T05:20:21.180Z,86.49
2018-12-24T05:21:21.172Z,85.77
2018-12-24T05:22:21.166Z,86.29
2018-12-24T05:23:21.145Z,86.39
2018-12-24T05:24:21.137Z,85.97
2018-12-24T05:25:21.125Z,86.39
2018-12-24T05:26:21.128Z,86.80
2018-12-24T05:27:21.113Z,86.39
2018-12-24T05:28:21.087Z,86.18
2018-12-24T05:29:21.106Z,86.39
2018-12-24T05:30:21.068Z,86.49
2018-12-24T05:31:21.056Z,86.29
2018-12-24T05:32:21.067Z,86.39
2018-12-24T05:33:21.034Z,86.49
2018-12-24T05:34:21.022Z,85.31
2018-12-24T05:35:21.012Z,85.36
2018-12-24T05:36:21.007Z,85.46
2018-12-24T05:37:21.002Z,84.91
2018-12-24T05:38:20.990Z,85.31
2018-12-24T05:39:20.979Z,85.77
2018-12-24T05:40:20.957Z,84.80
2018-12-24T05:41:20.947Z,85.42
2018-12-24T05:42:20.945Z,85.11
2018-12-24T05:43:20.931Z,85.63
2018-12-24T05:44:20.914Z,84.80
2018-12-24T05:45:20.903Z,85.31
2018-12-24T05:46:20.890Z,84.80
2018-12-24T05:47:20.893Z,84.91
2018-12-24T05:48:20.875Z,86.35
2018-12-24T05:49:20.884Z,85.46
2018-12-24T05:50:20.848Z,85.73
2018-12-24T05:51:20.838Z,86.15
2018-12-24T05:52:20.846Z,85.31
2018-12-24T05:53:20.815Z,85.52
2018-12-24T05:54:20.802Z,85.11
2018-12-24T05:55:20.791Z,85.01
2018-12-24T05:56:20.783Z,84.91
2018-12-24T05:57:20.773Z,85.01
2018-12-24T05:58:20.791Z,84.19
2018-12-24T05:59:20.749Z,84.39
2018-12-24T06:00:20.754Z,85.22
2018-12-24T06:01:20.724Z,85.42
2018-12-24T06:02:20.714Z,84.80
2018-12-24T06:03:20.714Z,84.70
2018-12-24T06:04:22.226Z,85.01
2018-12-24T06:05:20.680Z,84.49
2018-12-24T06:06:20.674Z,84.70
2018-12-24T06:07:20.659Z,83.77
2018-12-24T06:08:20.663Z,84.35
2018-12-24T06:09:20.639Z,83.56
2018-12-24T06:10:20.625Z,83.87
2018-12-24T06:11:20.618Z,84.70
2018-12-24T06:12:20.606Z,83.53
2018-12-24T06:13:21.564Z,83.63
2018-12-24T06:14:20.586Z,84.05
2018-12-24T06:15:20.568Z,83.77
2018-12-24T06:16:20.562Z,84.39
2018-12-24T06:17:20.550Z,83.53
2018-12-24T06:18:20.547Z,84.66
2018-12-24T06:19:20.526Z,84.35
2018-12-24T06:20:20.519Z,84.66
2018-12-24T06:21:20.504Z,84.77
2018-12-24T06:22:20.497Z,84.70
2018-12-24T06:23:20.492Z,84.49
2018-12-24T06:24:20.470Z,84.66
2018-12-24T06:25:20.460Z,83.56
2018-12-24T06:26:20.470Z,83.42
2018-12-24T06:27:20.439Z,83.73
2018-12-24T06:28:20.447Z,83.53
2018-12-24T06:29:20.415Z,84.35
2018-12-24T06:30:20.407Z,83.42
2018-12-24T06:31:20.398Z,83.42
2018-12-24T06:32:20.382Z,83.73
2018-12-24T06:33:20.372Z,83.53
2018-12-24T06:34:20.374Z,83.77
2018-12-24T06:35:20.348Z,83.87
2018-12-24T06:36:20.344Z,84.05
2018-12-24T06:37:20.328Z,83.47
2018-12-24T06:38:20.330Z,83.47
2018-12-24T06:39:20.319Z,82.91
2018-12-24T06:40:20.293Z,83.22
2018-12-24T06:41:20.283Z,83.47
2018-12-24T06:42:20.297Z,83.15
2018-12-24T06:43:20.266Z,83.32
2018-12-24T06:44:20.273Z,83.42
2018-12-24T06:45:20.239Z,83.15
2018-12-24T06:46:20.226Z,82.84
2018-12-24T06:47:20.234Z,83.12
2018-12-24T06:48:20.205Z,82.81
2018-12-24T06:49:20.582Z,82.29
2018-12-24T06:50:20.185Z,81.57
2018-12-24T06:51:20.189Z,81.26
2018-12-24T06:52:20.163Z,81.67
2018-12-24T06:53:20.150Z,81.26
2018-12-24T06:54:20.153Z,81.26
2018-12-24T06:55:20.129Z,81.37
2018-12-24T06:56:20.120Z,81.67
2018-12-24T06:57:20.127Z,81.05
2018-12-24T06:58:20.099Z,81.98
2018-12-24T06:59:20.098Z,82.09
2018-12-24T07:00:20.098Z,81.67
2018-12-24T07:01:20.075Z,81.26
2018-12-24T07:02:20.052Z,81.77
2018-12-24T07:03:20.042Z,81.98
2018-12-24T07:04:20.055Z,81.26
2018-12-24T07:05:20.026Z,81.88
2018-12-24T07:06:20.005Z,82.09
2018-12-24T07:07:19.995Z,81.67
2018-12-24T07:08:19.989Z,81.26
2018-12-24T07:09:19.999Z,81.77
2018-12-24T07:10:19.971Z,81.67
2018-12-24T07:11:19.954Z,81.88
2018-12-24T07:12:19.940Z,81.67
2018-12-24T07:13:19.956Z,81.57
2018-12-24T07:14:19.933Z,82.09
2018-12-24T07:15:19.911Z,81.67
2018-12-24T07:16:19.900Z,81.77
2018-12-24T07:17:19.887Z,82.09
2018-12-24T07:18:19.894Z,82.19
2018-12-24T07:19:19.910Z,81.77
2018-12-24T07:20:19.855Z,80.85
2018-12-24T07:21:19.847Z,80.75
2018-12-24T07:22:19.837Z,81.67
2018-12-24T07:23:19.820Z,81.98
2018-12-24T07:24:19.811Z,82.19
2018-12-24T07:25:19.811Z,81.77
2018-12-24T07:26:19.790Z,81.98
2018-12-24T07:27:19.778Z,81.77
2018-12-24T07:28:19.772Z,81.84
2018-12-24T07:29:19.750Z,81.88
2018-12-24T07:30:19.757Z,82.50
2018-12-24T07:31:19.731Z,82.60
2018-12-24T07:32:19.718Z,82.56
2018-12-24T07:33:19.708Z,81.98
2018-12-24T07:34:19.696Z,80.71
2018-12-24T07:35:19.717Z,81.74
2018-12-24T07:36:19.684Z,82.35
2018-12-24T07:37:19.662Z,81.57
2018-12-24T07:38:19.660Z,82.25
2018-12-24T07:39:19.641Z,81.63
2018-12-24T07:40:19.654Z,81.23
2018-12-24T07:41:19.632Z,81.84
2018-12-24T07:42:19.637Z,80.61
2018-12-24T07:43:19.597Z,80.81
2018-12-24T07:44:24.081Z,80.51
2018-12-24T07:45:19.593Z,80.30
2018-12-24T07:46:19.574Z,79.99
2018-12-24T07:47:19.553Z,80.02
2018-12-24T07:48:19.539Z,79.79
2018-12-24T07:49:19.533Z,79.79
2018-12-24T07:50:19.532Z,79.72
2018-12-24T07:51:19.552Z,79.99
2018-12-24T07:52:19.499Z,79.79
2018-12-24T07:53:19.483Z,79.88
2018-12-24T07:54:19.476Z,80.09
2018-12-24T07:55:19.591Z,79.88
2018-12-24T07:56:19.459Z,79.51
2018-12-24T07:57:19.462Z,79.79
2018-12-24T07:58:19.437Z,80.30
2018-12-24T07:59:19.419Z,80.61
2018-12-24T08:00:19.421Z,79.99
2018-12-24T08:01:19.400Z,80.19
2018-12-24T08:02:19.395Z,80.30
2018-12-24T08:03:19.382Z,79.88
2018-12-24T08:04:19.375Z,80.30
2018-12-24T08:05:19.636Z,80.19
2018-12-24T08:06:19.340Z,80.19
2018-12-24T08:07:19.330Z,79.99
2018-12-24T08:08:19.319Z,79.79
2018-12-24T08:09:19.313Z,80.71
2018-12-24T08:10:19.305Z,80.19
2018-12-24T08:11:19.305Z,79.99
2018-12-24T08:12:19.275Z,80.19
2018-12-24T08:13:19.270Z,80.30
2018-12-24T08:14:19.261Z,80.51
2018-12-24T08:15:19.252Z,81.02
2018-12-24T08:16:19.293Z,80.51
2018-12-24T08:17:19.220Z,81.23
2018-12-24T08:18:19.231Z,80.91
2018-12-24T08:19:19.203Z,81.12
2018-12-24T08:20:19.187Z,81.12
2018-12-24T08:21:19.203Z,80.91
2018-12-24T08:22:19.177Z,81.02
2018-12-24T08:23:19.163Z,80.91
2018-12-24T08:24:19.203Z,81.12
2018-12-24T08:25:19.138Z,81.12
2018-12-24T08:26:19.136Z,80.61
2018-12-24T08:27:19.125Z,81.02
2018-12-24T08:28:19.099Z,81.12
2018-12-24T08:29:19.101Z,81.02
2018-12-24T08:30:19.097Z,80.19
2018-12-24T08:31:19.088Z,80.71
2018-12-24T08:32:19.059Z,80.67
2018-12-24T08:33:19.057Z,80.40
2018-12-24T08:34:19.069Z,81.02
2018-12-24T08:35:19.035Z,80.57
2018-12-24T08:36:19.030Z,80.67
2018-12-24T08:37:19.078Z,80.71
2018-12-24T08:38:18.993Z,80.30
2018-12-24T08:39:19.005Z,80.36
2018-12-24T08:40:18.966Z,80.26
2018-12-24T08:41:18.991Z,79.99
2018-12-24T08:42:18.941Z,80.30
2018-12-24T08:43:18.934Z,80.05
2018-12-24T08:44:18.935Z,79.85
2018-12-24T08:45:18.911Z,79.75
2018-12-24T08:46:18.922Z,79.44
2018-12-24T08:47:18.890Z,79.54
2018-12-24T08:48:18.883Z,79.44
2018-12-24T08:49:18.875Z,78.82
2018-12-24T08:50:18.873Z,79.33
2018-12-24T08:51:19.112Z,79.33
2018-12-24T08:52:18.842Z,79.54
2018-12-24T08:53:18.824Z,79.64
2018-12-24T08:54:18.820Z,79.33
2018-12-24T08:55:18.808Z,79.44
2018-12-24T08:56:18.788Z,79.13
2018-12-24T08:57:18.799Z,80.05
2018-12-24T08:58:18.787Z,80.36
2018-12-24T08:59:18.757Z,79.85
2018-12-24T09:00:18.746Z,79.54
2018-12-24T09:01:18.738Z,79.54
2018-12-24T09:02:18.741Z,78.20
2018-12-24T09:03:18.711Z,77.96
2018-12-24T09:04:18.697Z,77.34
2018-12-24T09:05:18.688Z,77.55
2018-12-24T09:06:18.686Z,76.73
2018-12-24T09:07:18.711Z,77.24
2018-12-24T09:08:18.665Z,77.03
2018-12-24T09:09:19.075Z,77.24
2018-12-24T09:10:18.631Z,77.03
2018-12-24T09:11:18.637Z,75.90
2018-12-24T09:12:18.629Z,76.01
2018-12-24T09:13:18.611Z,76.01
2018-12-24T09:14:18.604Z,75.80
2018-12-24T09:15:18.583Z,76.52
2018-12-24T09:16:18.565Z,77.24
2018-12-24T09:17:18.569Z,77.24
2018-12-24T09:18:18.549Z,77.24
2018-12-24T09:19:18.550Z,75.76
2018-12-24T09:20:18.540Z,75.29
2018-12-24T09:21:18.516Z,76.11
2018-12-24T09:22:18.508Z,76.07
2018-12-24T09:23:18.488Z,76.52
2018-12-24T09:24:18.488Z,76.59
2018-12-24T09:25:18.469Z,76.31
2018-12-24T09:26:18.479Z,75.35
2018-12-24T09:27:18.477Z,75.49
2018-12-24T09:28:18.439Z,74.57
2018-12-24T09:29:18.421Z,74.53
2018-12-24T09:30:18.417Z,75.49
2018-12-24T09:31:18.415Z,75.15
2018-12-24T09:32:18.431Z,74.84
2018-12-24T09:33:18.376Z,74.43
2018-12-24T09:34:18.372Z,74.63
2018-12-24T09:35:18.376Z,75.04
2018-12-24T09:36:18.447Z,73.50
2018-12-24T09:37:18.349Z,73.91
2018-12-24T09:38:18.350Z,73.81
2018-12-24T09:39:18.318Z,74.12
2018-12-24T09:40:18.304Z,73.91
2018-12-24T09:41:18.318Z,73.71
2018-12-24T09:42:18.296Z,74.57
2018-12-24T09:43:18.304Z,74.67
2018-12-24T09:44:18.270Z,75.04
2018-12-24T09:45:18.253Z,75.25
2018-12-24T09:46:18.236Z,75.04
2018-12-24T09:47:18.234Z,74.74
2018-12-24T09:48:18.224Z,74.12
2018-12-24T09:49:18.239Z,74.60
2018-12-24T09:50:18.219Z,73.61
2018-12-24T09:51:18.199Z,73.78
2018-12-24T09:52:18.171Z,73.88
2018-12-24T09:53:18.172Z,74.08
2018-12-24T09:54:18.146Z,73.88
2018-12-24T09:55:18.139Z,73.78
2018-12-24T09:56:18.130Z,73.78
2018-12-24T09:57:18.119Z,73.16
2018-12-24T09:58:18.127Z,72.96
2018-12-24T09:59:18.094Z,72.44
2018-12-24T10:00:18.084Z,72.72
2018-12-24T10:01:18.095Z,72.24
2018-12-24T10:02:18.070Z,72.34
2018-12-24T10:03:18.108Z,72.65
2018-12-24T10:04:18.052Z,72.85
2018-12-24T10:05:18.026Z,72.96
2018-12-24T10:06:18.017Z,73.27
2018-12-24T10:07:18.002Z,73.36
2018-12-24T10:08:17.995Z,73.47
2018-12-24T10:09:17.998Z,73.78
2018-12-24T10:10:17.973Z,73.57
2018-12-24T10:11:17.977Z,73.68
2018-12-24T10:12:17.949Z,74.29
2018-12-24T10:13:17.976Z,73.78
2018-12-24T10:14:17.946Z,73.57
2018-12-24T10:15:17.925Z,72.96
2018-12-24T10:16:17.903Z,73.27
2018-12-24T10:17:17.898Z,73.27
2018-12-24T10:18:17.887Z,73.27
2018-12-24T10:19:17.881Z,73.57
2018-12-24T10:20:17.875Z,73.27
2018-12-24T10:21:17.852Z,73.27
2018-12-24T10:22:17.844Z,73.57
2018-12-24T10:23:17.851Z,73.68
2018-12-24T10:24:17.835Z,72.99
2018-12-24T10:25:17.806Z,73.47
2018-12-24T10:26:17.795Z,73.68
2018-12-24T10:27:17.885Z,73.50
2018-12-24T10:28:17.789Z,73.91
2018-12-24T10:29:19.609Z,74.12
2018-12-24T10:30:17.827Z,73.81
2018-12-24T10:31:17.753Z,74.33
2018-12-24T10:32:17.780Z,73.30
2018-12-24T10:33:17.731Z,73.09
2018-12-24T10:34:17.719Z,73.61
2018-12-24T10:35:17.695Z,74.84
2018-12-24T10:36:17.683Z,74.12
2018-12-24T10:37:17.670Z,73.61
2018-12-24T10:38:17.660Z,73.91
2018-12-24T10:39:17.685Z,73.50
2018-12-24T10:40:17.662Z,73.50
2018-12-24T10:41:17.652Z,73.40
2018-12-24T10:42:17.631Z,73.57
2018-12-24T10:43:17.725Z,73.91
2018-12-24T10:44:17.614Z,73.57
2018-12-24T10:45:17.593Z,73.19
2018-12-24T10:46:17.600Z,72.89
2018-12-24T10:47:17.567Z,73.81
2018-12-24T10:48:17.556Z,73.40
2018-12-24T10:49:17.557Z,73.30
2018-12-24T10:50:17.563Z,73.61
2018-12-24T10:51:17.527Z,73.40
2018-12-24T10:52:17.512Z,73.50
2018-12-24T10:53:17.526Z,73.40
2018-12-24T10:54:17.516Z,73.91
2018-12-24T10:55:17.486Z,73.61
2018-12-24T10:56:17.480Z,73.57
2018-12-24T10:57:17.474Z,74.19
2018-12-24T10:58:17.440Z,74.50
2018-12-24T10:59:17.480Z,74.50
2018-12-24T11:00:17.418Z,73.57
2018-12-24T11:01:17.454Z,73.78
2018-12-24T11:02:17.401Z,73.88
2018-12-24T11:03:17.387Z,73.88
2018-12-24T11:04:17.383Z,73.78
2018-12-24T11:05:17.396Z,73.64
2018-12-24T11:06:17.352Z,74.36
2018-12-24T11:07:17.364Z,74.29
2018-12-24T11:08:17.338Z,74.19
2018-12-24T11:09:17.378Z,72.96
2018-12-24T11:10:17.325Z,74.50
2018-12-24T11:11:17.305Z,75.73
2018-12-24T11:12:17.289Z,75.42
2018-12-24T11:13:17.307Z,75.63
2018-12-24T11:14:17.269Z,75.12
2018-12-24T11:15:24.847Z,75.01
2018-12-24T11:16:18.242Z,75.21
2018-12-24T11:17:17.232Z,75.52
2018-12-24T11:18:17.222Z,75.12
2018-12-24T11:19:17.210Z,74.50
2018-12-24T11:20:17.207Z,75.73
2018-12-24T11:21:17.189Z,75.32
2018-12-24T11:22:17.210Z,75.01
2018-12-24T11:23:17.208Z,74.70
2018-12-24T11:24:17.164Z,75.21
2018-12-24T11:25:17.176Z,75.63
2018-12-24T11:26:17.163Z,75.32
2018-12-24T11:27:17.130Z,75.52
2018-12-24T11:28:17.116Z,75.83
2018-12-24T11:29:17.107Z,75.93
2018-12-24T11:30:17.105Z,75.21
2018-12-24T11:31:17.075Z,75.73
2018-12-24T11:32:17.070Z,75.52
2018-12-24T11:33:17.061Z,75.01
2018-12-24T11:34:17.044Z,75.76
2018-12-24T11:35:17.078Z,75.52
2018-12-24T11:36:17.047Z,75.46
2018-12-24T11:37:17.015Z,75.83
2018-12-24T11:38:17.009Z,75.97
2018-12-24T11:39:16.989Z,76.79
2018-12-24T11:40:17.075Z,76.28
2018-12-24T11:41:17.005Z,75.56
2018-12-24T11:42:16.953Z,75.97
2018-12-24T11:43:16.948Z,75.46
2018-12-24T11:44:16.938Z,75.93
2018-12-24T11:45:16.989Z,75.56
2018-12-24T11:46:16.926Z,75.15
2018-12-24T11:47:16.929Z,75.15
2018-12-24T11:48:16.932Z,75.35
2018-12-24T11:49:16.881Z,75.42
2018-12-24T11:50:16.889Z,75.73
2018-12-24T11:51:16.857Z,75.12
2018-12-24T11:52:16.870Z,75.42
2018-12-24T11:53:16.836Z,74.60
2018-12-24T11:54:16.869Z,74.80
2018-12-24T11:55:16.856Z,75.32
2018-12-24T11:56:16.844Z,75.21
2018-12-24T11:57:16.902Z,76.25
2018-12-24T11:58:16.875Z,74.80
2018-12-24T11:59:16.774Z,74.40
2018-12-24T12:00:16.774Z,73.78
2018-12-24T12:01:16.773Z,74.29
2018-12-24T12:02:16.768Z,73.78
2018-12-24T12:03:16.724Z,73.78
2018-12-24T12:04:16.723Z,73.88
2018-12-24T12:05:16.761Z,74.19
2018-12-24T12:06:19.816Z,73.88
2018-12-24T12:07:16.783Z,73.68
2018-12-24T12:08:16.688Z,74.08
2018-12-24T12:09:16.673Z,73.27
2018-12-24T12:10:16.719Z,73.78
2018-12-24T12:11:16.794Z,73.98
2018-12-24T12:12:16.641Z,73.54
2018-12-24T12:13:16.620Z,73.44
2018-12-24T12:14:16.610Z,74.26
2018-12-24T12:15:16.643Z,73.13
2018-12-24T12:16:16.670Z,73.13
2018-12-24T12:17:16.570Z,73.02
2018-12-24T12:18:16.562Z,72.92
2018-12-24T12:19:16.580Z,72.92
2018-12-24T12:20:16.554Z,73.02
2018-12-24T12:21:16.547Z,72.92
2018-12-24T12:22:16.517Z,73.02
2018-12-24T12:23:16.514Z,72.20
2018-12-24T12:24:16.496Z,72.31
2018-12-24T12:25:16.503Z,71.89
2018-12-24T12:26:16.477Z,71.69
2018-12-24T12:27:16.458Z,72.10
2018-12-24T12:28:17.270Z,72.31
2018-12-24T12:29:16.441Z,72.51
2018-12-24T12:30:16.468Z,72.20
2018-12-24T12:31:16.443Z,72.41
2018-12-24T12:32:16.411Z,72.61
2018-12-24T12:33:16.399Z,72.20
2018-12-24T12:34:16.405Z,72.82
2018-12-24T12:35:16.374Z,72.85
2018-12-24T12:36:16.385Z,73.23
2018-12-24T12:37:16.349Z,72.72
2018-12-24T12:38:16.364Z,72.55
2018-12-24T12:39:16.375Z,72.34
2018-12-24T12:40:16.322Z,72.55
2018-12-24T12:41:16.326Z,72.96
2018-12-24T12:42:17.697Z,73.06
2018-12-24T12:43:16.287Z,73.16
2018-12-24T12:44:16.289Z,73.16
2018-12-24T12:45:16.265Z,73.47
2018-12-24T12:46:16.455Z,72.85
2018-12-24T12:47:16.246Z,73.57
2018-12-24T12:48:16.238Z,73.16
2018-12-24T12:49:16.224Z,72.85
2018-12-24T12:50:16.232Z,72.85
2018-12-24T12:51:16.198Z,72.51
2018-12-24T12:52:16.193Z,72.00
2018-12-24T12:53:16.199Z,71.17